UPS2334 KSDF-KMIA
Flight info
| Callsign | UPS2334 |
|---|---|
| Flight time | 1h 50m |
| Altitude | 39000 |
| Route | LOKRD1 BILET NOTWO/N0488F380 HONID FROGZ5 |
| Aircraft | B744/H-SDE3FGHIM1M2RWXY/LB1 |
Departure
| Time | 2026-05-05 19:38 |
|---|---|
| Airport | Louisville Muhammad Ali International Airport (KSDF) |
Arrival
| Time | 2026-05-05 21:28 |
|---|---|
| Airport | Miami International Airport (KMIA) |
| Time | Latitude | Longitude | Altitude | Speed | Heading |
|---|---|---|---|---|---|
| 2026-05-05 19:18 | 38.17164 | -85.73054 | 496 ft | 0 kts | 21° |
| 2026-05-05 19:27 | 38.17167 | -85.73053 | 496 ft | 0 kts | 24° |
| 2026-05-05 19:27 | 38.17172 | -85.73049 | 487 ft | 3 kts | 31° |
| 2026-05-05 19:27 | 38.17183 | -85.73028 | 489 ft | 4 kts | 64° |
| 2026-05-05 19:27 | 38.17206 | -85.72976 | 495 ft | 9 kts | 53° |
| 2026-05-05 19:28 | 38.17271 | -85.72910 | 490 ft | 14 kts | 31° |
| 2026-05-05 19:28 | 38.17368 | -85.72861 | 493 ft | 16 kts | 5° |
| 2026-05-05 19:28 | 38.17457 | -85.72914 | 499 ft | 14 kts | 309° |
| 2026-05-05 19:28 | 38.17477 | -85.73018 | 499 ft | 12 kts | 256° |
| 2026-05-05 19:29 | 38.17441 | -85.73101 | 500 ft | 10 kts | 238° |
| 2026-05-05 19:29 | 38.17421 | -85.73184 | 500 ft | 12 kts | 262° |
| 2026-05-05 19:29 | 38.17437 | -85.73321 | 491 ft | 19 kts | 285° |
| 2026-05-05 19:29 | 38.17488 | -85.73497 | 491 ft | 24 kts | 290° |
| 2026-05-05 19:30 | 38.17547 | -85.73708 | 487 ft | 26 kts | 289° |
| 2026-05-05 19:30 | 38.17609 | -85.73920 | 487 ft | 24 kts | 298° |
| 2026-05-05 19:30 | 38.17644 | -85.74082 | 490 ft | 15 kts | 268° |
| 2026-05-05 19:30 | 38.17636 | -85.74124 | 493 ft | 1 kts | 229° |
| 2026-05-05 19:31 | 38.17628 | -85.74129 | 488 ft | 2 kts | 205° |
| 2026-05-05 19:31 | 38.17613 | -85.74131 | 490 ft | 3 kts | 181° |
| 2026-05-05 19:31 | 38.17568 | -85.74133 | 493 ft | 9 kts | 181° |
| 2026-05-05 19:31 | 38.17490 | -85.74138 | 490 ft | 12 kts | 189° |
| 2026-05-05 19:32 | 38.17395 | -85.74161 | 489 ft | 15 kts | 183° |
| 2026-05-05 19:32 | 38.17274 | -85.74137 | 486 ft | 20 kts | 164° |
| 2026-05-05 19:32 | 38.17126 | -85.74096 | 484 ft | 23 kts | 168° |
| 2026-05-05 19:32 | 38.16965 | -85.74056 | 485 ft | 25 kts | 170° |
| 2026-05-05 19:33 | 38.16786 | -85.74027 | 482 ft | 26 kts | 168° |
| 2026-05-05 19:33 | 38.16627 | -85.73967 | 479 ft | 23 kts | 162° |
| 2026-05-05 19:33 | 38.16476 | -85.73958 | 480 ft | 20 kts | 182° |
| 2026-05-05 19:33 | 38.16336 | -85.73930 | 478 ft | 22 kts | 167° |
| 2026-05-05 19:34 | 38.16176 | -85.73880 | 476 ft | 25 kts | 167° |
| 2026-05-05 19:34 | 38.16016 | -85.73819 | 474 ft | 22 kts | 161° |
| 2026-05-05 19:34 | 38.15982 | -85.73804 | 478 ft | 1 kts | 161° |
| 2026-05-05 19:35 | 38.15940 | -85.73788 | 475 ft | 5 kts | 168° |
| 2026-05-05 19:35 | 38.15901 | -85.73792 | 477 ft | 7 kts | 193° |
| 2026-05-05 19:35 | 38.15855 | -85.73821 | 477 ft | 6 kts | 221° |
| 2026-05-05 19:35 | 38.15838 | -85.73852 | 476 ft | 1 kts | 253° |
| 2026-05-05 19:36 | 38.15839 | -85.73860 | 474 ft | 1 kts | 269° |
| 2026-05-05 19:36 | 38.15840 | -85.73875 | 476 ft | 1 kts | 282° |
| 2026-05-05 19:36 | 38.15843 | -85.73881 | 476 ft | 0 kts | 298° |
| 2026-05-05 19:37 | 38.15844 | -85.73883 | 472 ft | 1 kts | 301° |
| 2026-05-05 19:37 | 38.15869 | -85.73911 | 477 ft | 8 kts | 326° |
| 2026-05-05 19:37 | 38.15950 | -85.73957 | 474 ft | 24 kts | 340° |
| 2026-05-05 19:37 | 38.16510 | -85.74168 | 484 ft | 146 kts | 345° |
| 2026-05-05 19:38 | 38.17823 | -85.74641 | 750 ft | 230 kts | 343° |
| 2026-05-05 19:38 | 38.19306 | -85.75122 | 2362 ft | 209 kts | 341° |
| 2026-05-05 19:38 | 38.20801 | -85.75560 | 2823 ft | 223 kts | 343° |
| 2026-05-05 19:38 | 38.22301 | -85.75911 | 3781 ft | 224 kts | 343° |
| 2026-05-05 19:39 | 38.23908 | -85.76361 | 4191 ft | 249 kts | 342° |
| 2026-05-05 19:39 | 38.25602 | -85.76944 | 4672 ft | 260 kts | 335° |
| 2026-05-05 19:39 | 38.27338 | -85.77799 | 4963 ft | 278 kts | 338° |
| 2026-05-05 19:39 | 38.29168 | -85.78678 | 5237 ft | 284 kts | 322° |
| 2026-05-05 19:40 | 38.30623 | -85.80316 | 5835 ft | 267 kts | 305° |
| 2026-05-05 19:40 | 38.31717 | -85.82066 | 6874 ft | 248 kts | 298° |
| 2026-05-05 19:40 | 38.32633 | -85.83962 | 7176 ft | 256 kts | 290° |
| 2026-05-05 19:40 | 38.33078 | -85.86130 | 7460 ft | 251 kts | 260° |
| 2026-05-05 19:41 | 38.32549 | -85.88203 | 8340 ft | 248 kts | 233° |
| 2026-05-05 19:41 | 38.31255 | -85.89625 | 9269 ft | 251 kts | 207° |
| 2026-05-05 19:41 | 38.29578 | -85.90306 | 10125 ft | 257 kts | 195° |
| 2026-05-05 19:41 | 38.27811 | -85.90858 | 10783 ft | 266 kts | 207° |
| 2026-05-05 19:42 | 38.26164 | -85.92068 | 11286 ft | 283 kts | 213° |
| 2026-05-05 19:42 | 38.24430 | -85.93428 | 11763 ft | 301 kts | 215° |
| 2026-05-05 19:42 | 38.22550 | -85.94714 | 12212 ft | 323 kts | 203° |
| 2026-05-05 19:42 | 38.20297 | -85.95302 | 12950 ft | 341 kts | 187° |
| 2026-05-05 19:43 | 38.17887 | -85.94988 | 13766 ft | 359 kts | 171° |
| 2026-05-05 19:43 | 38.15466 | -85.94022 | 14455 ft | 369 kts | 168° |
| 2026-05-05 19:43 | 38.13016 | -85.92938 | 15160 ft | 377 kts | 166° |
| 2026-05-05 19:43 | 38.10591 | -85.91510 | 15776 ft | 395 kts | 153° |
| 2026-05-05 19:44 | 38.08402 | -85.89278 | 16393 ft | 413 kts | 139° |
| 2026-05-05 19:44 | 38.06648 | -85.86315 | 17085 ft | 428 kts | 122° |
| 2026-05-05 19:44 | 38.05495 | -85.82791 | 17769 ft | 438 kts | 110° |
| 2026-05-05 19:44 | 38.04580 | -85.79071 | 18424 ft | 445 kts | 108° |
| 2026-05-05 19:45 | 38.03671 | -85.75293 | 18999 ft | 449 kts | 113° |
| 2026-05-05 19:45 | 38.02245 | -85.71771 | 19576 ft | 450 kts | 127° |
| 2026-05-05 19:45 | 38.00255 | -85.68730 | 20147 ft | 447 kts | 141° |
| 2026-05-05 19:45 | 37.97820 | -85.66326 | 20712 ft | 443 kts | 153° |
| 2026-05-05 19:46 | 37.95206 | -85.64213 | 21279 ft | 447 kts | 154° |
| 2026-05-05 19:46 | 37.92549 | -85.62118 | 21862 ft | 452 kts | 155° |
| 2026-05-05 19:46 | 37.89870 | -85.60007 | 22439 ft | 457 kts | 155° |
| 2026-05-05 19:46 | 37.87160 | -85.57847 | 22965 ft | 461 kts | 155° |
| 2026-05-05 19:47 | 37.84439 | -85.55674 | 23413 ft | 465 kts | 155° |
| 2026-05-05 19:47 | 37.81684 | -85.53486 | 23802 ft | 469 kts | 155° |
| 2026-05-05 19:47 | 37.78912 | -85.51288 | 24173 ft | 473 kts | 155° |
| 2026-05-05 19:47 | 37.76111 | -85.49073 | 24548 ft | 476 kts | 155° |
| 2026-05-05 19:48 | 37.73291 | -85.46850 | 24893 ft | 479 kts | 155° |
| 2026-05-05 19:48 | 37.70456 | -85.44607 | 25232 ft | 482 kts | 155° |
| 2026-05-05 19:48 | 37.67610 | -85.42356 | 25596 ft | 485 kts | 154° |
| 2026-05-05 19:48 | 37.64743 | -85.40091 | 25982 ft | 487 kts | 154° |
| 2026-05-05 19:49 | 37.61861 | -85.37822 | 26351 ft | 489 kts | 154° |
| 2026-05-05 19:49 | 37.59942 | -85.36313 | 26616 ft | 491 kts | 154° |
| 2026-05-05 19:49 | 37.55892 | -85.33760 | 27158 ft | 483 kts | 168° |
| 2026-05-05 19:49 | 37.52674 | -85.32691 | 27583 ft | 475 kts | 178° |
| 2026-05-05 19:50 | 37.49409 | -85.32098 | 27993 ft | 477 kts | 180° |
| 2026-05-05 19:50 | 37.46107 | -85.31532 | 28410 ft | 480 kts | 180° |
| 2026-05-05 19:50 | 37.42821 | -85.30979 | 28931 ft | 485 kts | 180° |
| 2026-05-05 19:50 | 37.39460 | -85.30402 | 29388 ft | 490 kts | 180° |
| 2026-05-05 19:51 | 37.36071 | -85.29814 | 29873 ft | 496 kts | 180° |
| 2026-05-05 19:51 | 37.32624 | -85.29222 | 30324 ft | 502 kts | 180° |
| 2026-05-05 19:51 | 37.29151 | -85.28631 | 30736 ft | 507 kts | 180° |
| 2026-05-05 19:51 | 37.25638 | -85.28030 | 31122 ft | 512 kts | 180° |
| 2026-05-05 19:52 | 37.22092 | -85.27422 | 31592 ft | 516 kts | 180° |
| 2026-05-05 19:52 | 37.18517 | -85.26810 | 32091 ft | 520 kts | 180° |
| 2026-05-05 19:52 | 37.14942 | -85.26197 | 32847 ft | 518 kts | 181° |
| 2026-05-05 19:52 | 37.11375 | -85.25587 | 33603 ft | 516 kts | 181° |
| 2026-05-05 19:53 | 37.07831 | -85.24984 | 34275 ft | 514 kts | 181° |
| 2026-05-05 19:53 | 37.04282 | -85.24383 | 34834 ft | 515 kts | 182° |
| 2026-05-05 19:53 | 37.00729 | -85.23781 | 35364 ft | 516 kts | 182° |
| 2026-05-05 19:53 | 36.97168 | -85.23175 | 35837 ft | 517 kts | 182° |
| 2026-05-05 19:54 | 36.93601 | -85.22570 | 36251 ft | 519 kts | 182° |
| 2026-05-05 19:54 | 36.90007 | -85.21961 | 36639 ft | 521 kts | 183° |
| 2026-05-05 19:54 | 36.86402 | -85.21319 | 36987 ft | 526 kts | 181° |
| 2026-05-05 19:54 | 36.82790 | -85.20570 | 37358 ft | 528 kts | 181° |
| 2026-05-05 19:55 | 36.79157 | -85.19862 | 37699 ft | 529 kts | 182° |
| 2026-05-05 19:55 | 36.75512 | -85.19151 | 38044 ft | 531 kts | 181° |
| 2026-05-05 19:55 | 36.71856 | -85.18409 | 38392 ft | 533 kts | 181° |
| 2026-05-05 19:55 | 36.68195 | -85.17662 | 38705 ft | 534 kts | 182° |
| 2026-05-05 19:56 | 36.64525 | -85.16930 | 38883 ft | 532 kts | 182° |
| 2026-05-05 19:56 | 36.57232 | -85.15480 | 38926 ft | 529 kts | 181° |
| 2026-05-05 19:57 | 36.49971 | -85.14031 | 38932 ft | 527 kts | 182° |
| 2026-05-05 19:57 | 36.42743 | -85.12595 | 38937 ft | 526 kts | 182° |
| 2026-05-05 19:58 | 36.35513 | -85.11163 | 38943 ft | 527 kts | 181° |
| 2026-05-05 19:58 | 36.28298 | -85.09246 | 38970 ft | 540 kts | 172° |
| 2026-05-05 19:59 | 36.21129 | -85.06432 | 38991 ft | 540 kts | 172° |
| 2026-05-05 19:59 | 36.13955 | -85.03648 | 38962 ft | 541 kts | 172° |
| 2026-05-05 20:00 | 36.06807 | -85.00866 | 39003 ft | 542 kts | 171° |
| 2026-05-05 20:00 | 35.99602 | -84.98070 | 39012 ft | 542 kts | 172° |
| 2026-05-05 20:01 | 35.92401 | -84.95284 | 38984 ft | 542 kts | 171° |
| 2026-05-05 20:01 | 35.86373 | -84.92951 | 38983 ft | 542 kts | 172° |
| 2026-05-05 20:02 | 35.79163 | -84.90174 | 38961 ft | 542 kts | 172° |
| 2026-05-05 20:02 | 35.71960 | -84.87396 | 38964 ft | 542 kts | 172° |
| 2026-05-05 20:03 | 35.64753 | -84.84628 | 38965 ft | 542 kts | 172° |
| 2026-05-05 20:03 | 35.57553 | -84.81864 | 38973 ft | 542 kts | 171° |
| 2026-05-05 20:04 | 35.50351 | -84.79107 | 38975 ft | 542 kts | 171° |
| 2026-05-05 20:04 | 35.43183 | -84.76366 | 38984 ft | 542 kts | 171° |
| 2026-05-05 20:05 | 35.35971 | -84.73617 | 38989 ft | 544 kts | 171° |
| 2026-05-05 20:05 | 35.28746 | -84.70865 | 38968 ft | 544 kts | 171° |
| 2026-05-05 20:06 | 35.21522 | -84.68120 | 38968 ft | 544 kts | 171° |
| 2026-05-05 20:06 | 35.14282 | -84.65373 | 38980 ft | 547 kts | 171° |
| 2026-05-05 20:07 | 35.07107 | -84.62654 | 38975 ft | 547 kts | 171° |
| 2026-05-05 20:07 | 34.99752 | -84.59878 | 38985 ft | 547 kts | 171° |
| 2026-05-05 20:08 | 34.92478 | -84.57132 | 38991 ft | 548 kts | 171° |
| 2026-05-05 20:08 | 34.85201 | -84.54391 | 38989 ft | 545 kts | 171° |
| 2026-05-05 20:09 | 34.77975 | -84.51673 | 38997 ft | 543 kts | 171° |
| 2026-05-05 20:09 | 34.70749 | -84.48968 | 39009 ft | 543 kts | 171° |
| 2026-05-05 20:10 | 34.63527 | -84.46260 | 39003 ft | 543 kts | 171° |
| 2026-05-05 20:10 | 34.56320 | -84.43567 | 39002 ft | 542 kts | 171° |
| 2026-05-05 20:11 | 34.49118 | -84.40880 | 39001 ft | 541 kts | 171° |
| 2026-05-05 20:11 | 34.41923 | -84.38204 | 39028 ft | 542 kts | 171° |
| 2026-05-05 20:12 | 34.34771 | -84.35540 | 39007 ft | 541 kts | 171° |
| 2026-05-05 20:12 | 34.27575 | -84.32872 | 39005 ft | 541 kts | 171° |
| 2026-05-05 20:13 | 34.20352 | -84.30562 | 39026 ft | 528 kts | 182° |
| 2026-05-05 20:13 | 34.16735 | -84.30306 | 39025 ft | 513 kts | 192° |
| 2026-05-05 20:13 | 34.13169 | -84.30433 | 39022 ft | 513 kts | 192° |
| 2026-05-05 20:14 | 34.06037 | -84.30705 | 39023 ft | 513 kts | 192° |
| 2026-05-05 20:14 | 33.98897 | -84.30971 | 39030 ft | 514 kts | 192° |
| 2026-05-05 20:15 | 33.91753 | -84.31238 | 39032 ft | 513 kts | 192° |
| 2026-05-05 20:15 | 33.84613 | -84.31506 | 39035 ft | 514 kts | 192° |
| 2026-05-05 20:16 | 33.77469 | -84.31771 | 39032 ft | 513 kts | 192° |
| 2026-05-05 20:16 | 33.70332 | -84.32039 | 39035 ft | 513 kts | 192° |
| 2026-05-05 20:17 | 33.63196 | -84.32303 | 39049 ft | 513 kts | 192° |
| 2026-05-05 20:17 | 33.56054 | -84.32569 | 39059 ft | 513 kts | 192° |
| 2026-05-05 20:18 | 33.48930 | -84.32833 | 39069 ft | 512 kts | 192° |
| 2026-05-05 20:18 | 33.41796 | -84.33097 | 39073 ft | 512 kts | 192° |
| 2026-05-05 20:19 | 33.34713 | -84.33358 | 39073 ft | 512 kts | 192° |
| 2026-05-05 20:19 | 33.27540 | -84.33624 | 39068 ft | 513 kts | 192° |
| 2026-05-05 20:20 | 33.20411 | -84.33886 | 39060 ft | 513 kts | 192° |
| 2026-05-05 20:20 | 33.13326 | -84.34146 | 39048 ft | 512 kts | 192° |
| 2026-05-05 20:21 | 33.06201 | -84.34409 | 39040 ft | 513 kts | 192° |
| 2026-05-05 20:21 | 32.99060 | -84.34669 | 39050 ft | 514 kts | 192° |
| 2026-05-05 20:22 | 32.91902 | -84.34932 | 39046 ft | 514 kts | 192° |
| 2026-05-05 20:22 | 32.84763 | -84.35192 | 39044 ft | 513 kts | 192° |
| 2026-05-05 20:23 | 32.77616 | -84.35454 | 39038 ft | 514 kts | 192° |
| 2026-05-05 20:23 | 32.70467 | -84.35715 | 39038 ft | 515 kts | 193° |
| 2026-05-05 20:24 | 32.63303 | -84.35973 | 39030 ft | 514 kts | 192° |
| 2026-05-05 20:24 | 32.56142 | -84.36235 | 39024 ft | 515 kts | 193° |
| 2026-05-05 20:25 | 32.48985 | -84.36493 | 38989 ft | 514 kts | 193° |
| 2026-05-05 20:25 | 32.41835 | -84.36753 | 39023 ft | 514 kts | 193° |
| 2026-05-05 20:26 | 32.34674 | -84.37011 | 39020 ft | 515 kts | 193° |
| 2026-05-05 20:26 | 32.27517 | -84.37269 | 39012 ft | 514 kts | 193° |
| 2026-05-05 20:27 | 32.20399 | -84.37703 | 39049 ft | 500 kts | 202° |
| 2026-05-05 20:27 | 32.17154 | -84.38710 | 39055 ft | 481 kts | 213° |
| 2026-05-05 20:27 | 32.14105 | -84.40228 | 39043 ft | 473 kts | 217° |
| 2026-05-05 20:28 | 32.08042 | -84.43330 | 39054 ft | 480 kts | 213° |
| 2026-05-05 20:28 | 32.01570 | -84.45645 | 39043 ft | 495 kts | 204° |
| 2026-05-05 20:29 | 31.94637 | -84.46752 | 39018 ft | 513 kts | 193° |
| 2026-05-05 20:29 | 31.91033 | -84.46660 | 39058 ft | 526 kts | 184° |
| 2026-05-05 20:29 | 31.87385 | -84.45894 | 39050 ft | 538 kts | 175° |
| 2026-05-05 20:30 | 31.80154 | -84.43422 | 39061 ft | 542 kts | 172° |
| 2026-05-05 20:30 | 31.72879 | -84.41490 | 39063 ft | 531 kts | 180° |
| 2026-05-05 20:31 | 31.65586 | -84.39813 | 39052 ft | 538 kts | 175° |
| 2026-05-05 20:31 | 31.58318 | -84.37832 | 39060 ft | 534 kts | 178° |
| 2026-05-05 20:32 | 31.51028 | -84.36084 | 39063 ft | 536 kts | 177° |
| 2026-05-05 20:32 | 31.43750 | -84.34177 | 39063 ft | 535 kts | 178° |
| 2026-05-05 20:33 | 31.36468 | -84.32381 | 39050 ft | 535 kts | 177° |
| 2026-05-05 20:33 | 31.29199 | -84.30523 | 39045 ft | 535 kts | 177° |
| 2026-05-05 20:34 | 31.21920 | -84.28706 | 39042 ft | 535 kts | 177° |
| 2026-05-05 20:34 | 31.14688 | -84.26881 | 39045 ft | 535 kts | 177° |
| 2026-05-05 20:35 | 31.07362 | -84.25047 | 39034 ft | 535 kts | 177° |
| 2026-05-05 20:35 | 31.00080 | -84.23221 | 39035 ft | 535 kts | 177° |
| 2026-05-05 20:36 | 30.92851 | -84.21414 | 39045 ft | 535 kts | 177° |
| 2026-05-05 20:36 | 30.85572 | -84.19596 | 39043 ft | 535 kts | 177° |
| 2026-05-05 20:37 | 30.78289 | -84.17779 | 39052 ft | 535 kts | 177° |
| 2026-05-05 20:37 | 30.71018 | -84.15970 | 39054 ft | 535 kts | 177° |
| 2026-05-05 20:38 | 30.63743 | -84.14160 | 39051 ft | 535 kts | 177° |
| 2026-05-05 20:38 | 30.56462 | -84.12354 | 39056 ft | 535 kts | 177° |
| 2026-05-05 20:39 | 30.49182 | -84.10548 | 39057 ft | 535 kts | 177° |
| 2026-05-05 20:39 | 30.41908 | -84.08749 | 39058 ft | 535 kts | 177° |
| 2026-05-05 20:40 | 30.34709 | -84.06274 | 39077 ft | 553 kts | 161° |
| 2026-05-05 20:40 | 30.28016 | -84.01678 | 39068 ft | 562 kts | 152° |
| 2026-05-05 20:41 | 30.21445 | -83.96857 | 39065 ft | 555 kts | 158° |
| 2026-05-05 20:41 | 30.14645 | -83.92675 | 39066 ft | 554 kts | 156° |
| 2026-05-05 20:42 | 30.08005 | -83.88093 | 39060 ft | 555 kts | 156° |
| 2026-05-05 20:42 | 30.01283 | -83.83766 | 39062 ft | 553 kts | 157° |
| 2026-05-05 20:43 | 29.94611 | -83.79310 | 39056 ft | 553 kts | 156° |
| 2026-05-05 20:43 | 29.87921 | -83.74935 | 39053 ft | 552 kts | 157° |
| 2026-05-05 20:44 | 29.81254 | -83.70544 | 39048 ft | 552 kts | 156° |
| 2026-05-05 20:44 | 29.74620 | -83.66194 | 39042 ft | 552 kts | 156° |
| 2026-05-05 20:45 | 29.64611 | -83.59638 | 39039 ft | 552 kts | 156° |
| 2026-05-05 20:45 | 29.57943 | -83.55286 | 39044 ft | 552 kts | 156° |
| 2026-05-05 20:46 | 29.51262 | -83.50924 | 39049 ft | 552 kts | 156° |
| 2026-05-05 20:46 | 29.44588 | -83.46577 | 39051 ft | 552 kts | 156° |
| 2026-05-05 20:47 | 29.37907 | -83.42231 | 39043 ft | 552 kts | 156° |
| 2026-05-05 20:47 | 29.31226 | -83.37891 | 39047 ft | 552 kts | 156° |
| 2026-05-05 20:48 | 29.24506 | -83.33658 | 39057 ft | 547 kts | 161° |
| 2026-05-05 20:48 | 29.18725 | -83.30732 | 39043 ft | 545 kts | 163° |
| 2026-05-05 20:49 | 29.10604 | -83.26625 | 39045 ft | 547 kts | 162° |
| 2026-05-05 20:49 | 29.04833 | -83.23689 | 39030 ft | 545 kts | 163° |
| 2026-05-05 20:50 | 28.97893 | -83.20198 | 39033 ft | 545 kts | 162° |
| 2026-05-05 20:50 | 28.90966 | -83.16685 | 39032 ft | 544 kts | 162° |
| 2026-05-05 20:51 | 28.84035 | -83.13199 | 39037 ft | 544 kts | 162° |
| 2026-05-05 20:51 | 28.77119 | -83.09710 | 39016 ft | 543 kts | 162° |
| 2026-05-05 20:52 | 28.70212 | -83.06240 | 39029 ft | 542 kts | 162° |
| 2026-05-05 20:52 | 28.63311 | -83.02772 | 39031 ft | 542 kts | 162° |
| 2026-05-05 20:53 | 28.56404 | -82.99310 | 39030 ft | 542 kts | 162° |
| 2026-05-05 20:53 | 28.49487 | -82.95846 | 39031 ft | 542 kts | 162° |
| 2026-05-05 20:54 | 28.42594 | -82.92399 | 39024 ft | 540 kts | 161° |
| 2026-05-05 20:54 | 28.35765 | -82.88989 | 39028 ft | 539 kts | 161° |
| 2026-05-05 20:55 | 28.28904 | -82.85569 | 39027 ft | 538 kts | 161° |
| 2026-05-05 20:55 | 28.22052 | -82.82157 | 39020 ft | 537 kts | 161° |
| 2026-05-05 20:56 | 28.15206 | -82.78755 | 39031 ft | 537 kts | 161° |
| 2026-05-05 20:56 | 28.08354 | -82.75349 | 39042 ft | 538 kts | 161° |
| 2026-05-05 20:57 | 28.01486 | -82.71986 | 39046 ft | 535 kts | 166° |
| 2026-05-05 20:57 | 27.94343 | -82.70193 | 39034 ft | 522 kts | 179° |
| 2026-05-05 20:58 | 27.87133 | -82.69108 | 39038 ft | 525 kts | 176° |
| 2026-05-05 20:58 | 27.79937 | -82.67491 | 39027 ft | 528 kts | 176° |
| 2026-05-05 20:59 | 27.72707 | -82.66182 | 39032 ft | 527 kts | 177° |
| 2026-05-05 20:59 | 27.65468 | -82.64696 | 39034 ft | 528 kts | 176° |
| 2026-05-05 21:00 | 27.58238 | -82.63306 | 39033 ft | 527 kts | 177° |
| 2026-05-05 21:00 | 27.51025 | -82.61703 | 39033 ft | 532 kts | 171° |
| 2026-05-05 21:01 | 27.43866 | -82.59558 | 39035 ft | 532 kts | 171° |
| 2026-05-05 21:01 | 27.36691 | -82.57470 | 39044 ft | 532 kts | 171° |
| 2026-05-05 21:02 | 27.29573 | -82.55374 | 39044 ft | 532 kts | 171° |
| 2026-05-05 21:02 | 27.22397 | -82.53276 | 39031 ft | 534 kts | 171° |
| 2026-05-05 21:03 | 27.15210 | -82.51172 | 39028 ft | 534 kts | 171° |
| 2026-05-05 21:03 | 27.08033 | -82.49074 | 39026 ft | 533 kts | 171° |
| 2026-05-05 21:04 | 27.00860 | -82.46983 | 39025 ft | 532 kts | 171° |
| 2026-05-05 21:04 | 26.93688 | -82.44893 | 39028 ft | 533 kts | 170° |
| 2026-05-05 21:05 | 26.90178 | -82.43507 | 39046 ft | 541 kts | 158° |
| 2026-05-05 21:05 | 26.86908 | -82.41381 | 39042 ft | 546 kts | 145° |
| 2026-05-05 21:05 | 26.81392 | -82.35512 | 39036 ft | 548 kts | 131° |
| 2026-05-05 21:06 | 26.76216 | -82.29243 | 39026 ft | 549 kts | 138° |
| 2026-05-05 21:06 | 26.70318 | -82.23845 | 39025 ft | 547 kts | 145° |
| 2026-05-05 21:07 | 26.64426 | -82.18431 | 38324 ft | 551 kts | 138° |
| 2026-05-05 21:07 | 26.61599 | -82.15530 | 37514 ft | 551 kts | 139° |
| 2026-05-05 21:07 | 26.58693 | -82.12739 | 36734 ft | 550 kts | 142° |
| 2026-05-05 21:08 | 26.55737 | -82.10044 | 36332 ft | 543 kts | 142° |
| 2026-05-05 21:08 | 26.52890 | -82.07360 | 36293 ft | 544 kts | 139° |
| 2026-05-05 21:08 | 26.50103 | -82.04474 | 35436 ft | 547 kts | 138° |
| 2026-05-05 21:08 | 26.47293 | -82.01599 | 34632 ft | 548 kts | 139° |
| 2026-05-05 21:09 | 26.44446 | -81.98781 | 33821 ft | 547 kts | 140° |
| 2026-05-05 21:09 | 26.41607 | -81.95959 | 32934 ft | 546 kts | 139° |
| 2026-05-05 21:09 | 26.38771 | -81.93081 | 32082 ft | 544 kts | 139° |
| 2026-05-05 21:09 | 26.36012 | -81.90283 | 31272 ft | 541 kts | 139° |
| 2026-05-05 21:10 | 26.33216 | -81.87486 | 30455 ft | 539 kts | 140° |
| 2026-05-05 21:10 | 26.30424 | -81.84702 | 29603 ft | 537 kts | 140° |
| 2026-05-05 21:10 | 26.27662 | -81.81929 | 28703 ft | 533 kts | 139° |
| 2026-05-05 21:10 | 26.24924 | -81.79171 | 27832 ft | 528 kts | 138° |
| 2026-05-05 21:11 | 26.22463 | -81.76162 | 26999 ft | 524 kts | 127° |
| 2026-05-05 21:11 | 26.20584 | -81.72720 | 26199 ft | 518 kts | 115° |
| 2026-05-05 21:11 | 26.19178 | -81.69050 | 25390 ft | 512 kts | 110° |
| 2026-05-05 21:11 | 26.17977 | -81.65340 | 24619 ft | 507 kts | 108° |
| 2026-05-05 21:12 | 26.16766 | -81.61676 | 23857 ft | 502 kts | 111° |
| 2026-05-05 21:12 | 26.15310 | -81.58166 | 23011 ft | 497 kts | 117° |
| 2026-05-05 21:12 | 26.13689 | -81.54800 | 22133 ft | 492 kts | 119° |
| 2026-05-05 21:12 | 26.12085 | -81.51452 | 21283 ft | 486 kts | 116° |
| 2026-05-05 21:13 | 26.10659 | -81.48067 | 20462 ft | 481 kts | 114° |
| 2026-05-05 21:13 | 26.09283 | -81.44711 | 19770 ft | 472 kts | 115° |
| 2026-05-05 21:13 | 26.07850 | -81.41463 | 19088 ft | 465 kts | 116° |
| 2026-05-05 21:13 | 26.06403 | -81.38274 | 18417 ft | 458 kts | 116° |
| 2026-05-05 21:14 | 26.05022 | -81.35108 | 17673 ft | 452 kts | 115° |
| 2026-05-05 21:14 | 26.03688 | -81.31972 | 16914 ft | 446 kts | 115° |
| 2026-05-05 21:14 | 26.02349 | -81.28885 | 16192 ft | 440 kts | 116° |
| 2026-05-05 21:14 | 26.01012 | -81.25856 | 15571 ft | 432 kts | 116° |
| 2026-05-05 21:15 | 25.99723 | -81.22917 | 14990 ft | 425 kts | 116° |
| 2026-05-05 21:15 | 25.98431 | -81.19945 | 14392 ft | 418 kts | 116° |
| 2026-05-05 21:15 | 25.97176 | -81.17065 | 13826 ft | 412 kts | 116° |
| 2026-05-05 21:15 | 25.95945 | -81.14257 | 13209 ft | 407 kts | 116° |
| 2026-05-05 21:16 | 25.94713 | -81.11449 | 12572 ft | 402 kts | 116° |
| 2026-05-05 21:16 | 25.93498 | -81.08674 | 11963 ft | 396 kts | 116° |
| 2026-05-05 21:16 | 25.92307 | -81.05954 | 11561 ft | 386 kts | 116° |
| 2026-05-05 21:16 | 25.91197 | -81.03346 | 11289 ft | 360 kts | 112° |
| 2026-05-05 21:17 | 25.90279 | -81.00854 | 11023 ft | 339 kts | 114° |
| 2026-05-05 21:17 | 25.89340 | -80.98522 | 10759 ft | 322 kts | 115° |
| 2026-05-05 21:17 | 25.88460 | -80.96284 | 10491 ft | 313 kts | 114° |
| 2026-05-05 21:17 | 25.87612 | -80.94046 | 10240 ft | 315 kts | 114° |
| 2026-05-05 21:18 | 25.86760 | -80.91801 | 9869 ft | 317 kts | 114° |
| 2026-05-05 21:18 | 25.85889 | -80.89540 | 9466 ft | 319 kts | 114° |
| 2026-05-05 21:18 | 25.85028 | -80.87311 | 9034 ft | 307 kts | 114° |
| 2026-05-05 21:18 | 25.84209 | -80.85177 | 8603 ft | 294 kts | 114° |
| 2026-05-05 21:19 | 25.83422 | -80.83127 | 8186 ft | 286 kts | 114° |
| 2026-05-05 21:19 | 25.82649 | -80.81121 | 7819 ft | 281 kts | 114° |
| 2026-05-05 21:19 | 25.81880 | -80.79127 | 7467 ft | 283 kts | 114° |
| 2026-05-05 21:19 | 25.81103 | -80.77110 | 7116 ft | 285 kts | 114° |
| 2026-05-05 21:20 | 25.80320 | -80.75078 | 6770 ft | 287 kts | 113° |
| 2026-05-05 21:20 | 25.79532 | -80.73033 | 6446 ft | 288 kts | 113° |
| 2026-05-05 21:20 | 25.78747 | -80.70998 | 6188 ft | 286 kts | 114° |
| 2026-05-05 21:20 | 25.77967 | -80.68979 | 5917 ft | 283 kts | 113° |
| 2026-05-05 21:21 | 25.77229 | -80.66960 | 5661 ft | 281 kts | 105° |
| 2026-05-05 21:21 | 25.77042 | -80.64823 | 5395 ft | 279 kts | 88° |
| 2026-05-05 21:21 | 25.77197 | -80.62714 | 5113 ft | 267 kts | 83° |
| 2026-05-05 21:21 | 25.77396 | -80.60718 | 4824 ft | 254 kts | 85° |
| 2026-05-05 21:22 | 25.77483 | -80.58793 | 4526 ft | 246 kts | 86° |
| 2026-05-05 21:22 | 25.77563 | -80.56916 | 4224 ft | 237 kts | 87° |
| 2026-05-05 21:22 | 25.77635 | -80.55163 | 4038 ft | 224 kts | 86° |
| 2026-05-05 21:22 | 25.77707 | -80.53411 | 3804 ft | 228 kts | 86° |
| 2026-05-05 21:23 | 25.77777 | -80.51658 | 3522 ft | 231 kts | 86° |
| 2026-05-05 21:23 | 25.77849 | -80.49912 | 3228 ft | 221 kts | 86° |
| 2026-05-05 21:23 | 25.77917 | -80.48237 | 2949 ft | 208 kts | 86° |
| 2026-05-05 21:23 | 25.77979 | -80.46706 | 2671 ft | 194 kts | 85° |
| 2026-05-05 21:24 | 25.78035 | -80.45290 | 2412 ft | 173 kts | 85° |
| 2026-05-05 21:24 | 25.78088 | -80.44017 | 2196 ft | 157 kts | 86° |
| 2026-05-05 21:24 | 25.78133 | -80.42870 | 2017 ft | 141 kts | 85° |
| 2026-05-05 21:24 | 25.78175 | -80.41844 | 1848 ft | 126 kts | 86° |
| 2026-05-05 21:25 | 25.78214 | -80.40901 | 1662 ft | 119 kts | 85° |
| 2026-05-05 21:25 | 25.78249 | -80.39984 | 1417 ft | 117 kts | 84° |
| 2026-05-05 21:25 | 25.78304 | -80.39088 | 1248 ft | 120 kts | 86° |
| 2026-05-05 21:25 | 25.78322 | -80.38165 | 1031 ft | 119 kts | 85° |
| 2026-05-05 21:26 | 25.78381 | -80.37277 | 821 ft | 118 kts | 85° |
| 2026-05-05 21:26 | 25.78390 | -80.36340 | 735 ft | 119 kts | 89° |
| 2026-05-05 21:26 | 25.78403 | -80.35427 | 774 ft | 122 kts | 85° |
| 2026-05-05 21:26 | 25.78502 | -80.34477 | 691 ft | 123 kts | 82° |
| 2026-05-05 21:27 | 25.78539 | -80.33564 | 534 ft | 116 kts | 86° |
| 2026-05-05 21:27 | 25.78579 | -80.32529 | 363 ft | 137 kts | 87° |
| 2026-05-05 21:27 | 25.78630 | -80.31533 | 149 ft | 125 kts | 89° |
| 2026-05-05 21:27 | 25.78655 | -80.30617 | 35 ft | 111 kts | 86° |
| 2026-05-05 21:28 | 25.78688 | -80.29858 | 30 ft | 88 kts | 89° |
| 2026-05-05 21:28 | 25.78698 | -80.29248 | 33 ft | 71 kts | 88° |
| 2026-05-05 21:28 | 25.78717 | -80.28844 | 32 ft | 23 kts | 73° |
| 2026-05-05 21:28 | 25.78801 | -80.28701 | 30 ft | 22 kts | 45° |
| 2026-05-05 21:29 | 25.78846 | -80.28652 | 29 ft | 3 kts | 44° |
| 2026-05-05 21:29 | 25.78863 | -80.28634 | 29 ft | 4 kts | 39° |
| 2026-05-05 21:29 | 25.78891 | -80.28610 | 30 ft | 6 kts | 37° |
| 2026-05-05 21:29 | 25.78932 | -80.28578 | 30 ft | 8 kts | 36° |
| 2026-05-05 21:30 | 25.78986 | -80.28534 | 31 ft | 12 kts | 37° |
| 2026-05-05 21:30 | 25.79064 | -80.28472 | 30 ft | 16 kts | 36° |
| 2026-05-05 21:30 | 25.79164 | -80.28421 | 32 ft | 14 kts | 357° |
| 2026-05-05 21:30 | 25.79240 | -80.28478 | 31 ft | 14 kts | 308° |
| 2026-05-05 21:31 | 25.79284 | -80.28580 | 30 ft | 16 kts | 281° |
| 2026-05-05 21:31 | 25.79297 | -80.28716 | 27 ft | 19 kts | 282° |
| 2026-05-05 21:31 | 25.79352 | -80.28855 | 28 ft | 20 kts | 298° |
| 2026-05-05 21:31 | 25.79422 | -80.28994 | 30 ft | 21 kts | 299° |
| 2026-05-05 21:32 | 25.79494 | -80.29144 | 31 ft | 22 kts | 296° |
| 2026-05-05 21:32 | 25.79568 | -80.29298 | 33 ft | 23 kts | 300° |
| 2026-05-05 21:32 | 25.79657 | -80.29464 | 30 ft | 26 kts | 300° |
| 2026-05-05 21:32 | 25.79747 | -80.29639 | 28 ft | 21 kts | 299° |
| 2026-05-05 21:33 | 25.79820 | -80.29762 | 29 ft | 14 kts | 327° |
| 2026-05-05 21:33 | 25.79893 | -80.29761 | 27 ft | 11 kts | 9° |
| 2026-05-05 21:33 | 25.79968 | -80.29756 | 28 ft | 10 kts | 1° |
| 2026-05-05 21:33 | 25.79990 | -80.29756 | 28 ft | 0 kts | 1° |
| 2026-05-05 21:34 | 25.80002 | -80.29755 | 28 ft | 3 kts | 1° |
| 2026-05-05 21:34 | 25.80045 | -80.29754 | 28 ft | 10 kts | 2° |
| 2026-05-05 21:34 | 25.80137 | -80.29751 | 27 ft | 17 kts | 1° |
| 2026-05-05 21:34 | 25.80273 | -80.29753 | 28 ft | 22 kts | 356° |
| 2026-05-05 21:35 | 25.80384 | -80.29774 | 32 ft | 6 kts | 326° |
| 2026-05-05 21:35 | 25.80393 | -80.29791 | 32 ft | 2 kts | 295° |
| 2026-05-05 21:35 | 25.80402 | -80.29828 | 32 ft | 8 kts | 284° |
| 2026-05-05 21:35 | 25.80406 | -80.29919 | 31 ft | 16 kts | 265° |
| 2026-05-05 21:36 | 25.80398 | -80.30058 | 31 ft | 20 kts | 267° |
| 2026-05-05 21:36 | 25.80401 | -80.30191 | 32 ft | 10 kts | 294° |
| 2026-05-05 21:36 | 25.80446 | -80.30225 | 33 ft | 7 kts | 346° |
| 2026-05-05 21:36 | 25.80508 | -80.30237 | 33 ft | 11 kts | 353° |
| 2026-05-05 21:37 | 25.80593 | -80.30247 | 31 ft | 8 kts | 347° |
| 2026-05-05 21:37 | 25.80610 | -80.30261 | 31 ft | 3 kts | 311° |
| 2026-05-05 21:37 | 25.80626 | -80.30293 | 31 ft | 5 kts | 290° |
| 2026-05-05 21:37 | 25.80628 | -80.30312 | 31 ft | 0 kts | 272° |